sensor_id;sensor_type;location;lat;lon;timestamp;P1;durP1;ratioP1;P2;durP2;ratioP2
30543;SDS011;43388;46.308;4.600;2023-03-14T00:00:24;4.07;;;3.75;;
30543;SDS011;43388;46.308;4.600;2023-03-14T00:02:51;3.92;;;3.03;;
30543;SDS011;43388;46.308;4.600;2023-03-14T00:05:17;3.00;;;2.25;;
30543;SDS011;43388;46.308;4.600;2023-03-14T00:07:43;8.50;;;3.00;;
30543;SDS011;43388;46.308;4.600;2023-03-14T00:10:11;2.88;;;2.47;;
30543;SDS011;43388;46.308;4.600;2023-03-14T00:12:38;10.55;;;7.65;;
30543;SDS011;43388;46.308;4.600;2023-03-14T00:15:04;12.75;;;8.25;;
30543;SDS011;43388;46.308;4.600;2023-03-14T00:17:31;8.57;;;5.00;;
30543;SDS011;43388;46.308;4.600;2023-03-14T00:19:58;9.13;;;6.72;;
30543;SDS011;43388;46.308;4.600;2023-03-14T00:24:58;6.35;;;3.70;;
30543;SDS011;43388;46.308;4.600;2023-03-14T00:27:24;9.50;;;8.23;;
30543;SDS011;43388;46.308;4.600;2023-03-14T00:29:50;18.60;;;12.95;;
30543;SDS011;43388;46.308;4.600;2023-03-14T00:32:16;7.60;;;5.65;;
30543;SDS011;43388;46.308;4.600;2023-03-14T00:34:43;4.95;;;3.63;;
30543;SDS011;43388;46.308;4.600;2023-03-14T00:37:09;3.38;;;3.08;;
30543;SDS011;43388;46.308;4.600;2023-03-14T00:39:34;4.35;;;3.90;;
30543;SDS011;43388;46.308;4.600;2023-03-14T00:42:00;3.28;;;3.00;;
30543;SDS011;43388;46.308;4.600;2023-03-14T00:44:27;1.92;;;1.83;;
30543;SDS011;43388;46.308;4.600;2023-03-14T00:46:53;2.13;;;1.90;;
30543;SDS011;43388;46.308;4.600;2023-03-14T00:49:19;2.70;;;2.50;;
30543;SDS011;43388;46.308;4.600;2023-03-14T00:51:45;2.30;;;2.10;;
30543;SDS011;43388;46.308;4.600;2023-03-14T00:54:11;2.55;;;2.10;;
30543;SDS011;43388;46.308;4.600;2023-03-14T00:56:37;4.68;;;2.55;;
30543;SDS011;43388;46.308;4.600;2023-03-14T00:59:03;1.85;;;1.75;;
30543;SDS011;43388;46.308;4.600;2023-03-14T01:01:29;1.85;;;1.75;;
30543;SDS011;43388;46.308;4.600;2023-03-14T01:03:55;2.42;;;2.22;;
30543;SDS011;43388;46.308;4.600;2023-03-14T01:06:22;3.53;;;1.92;;
30543;SDS011;43388;46.308;4.600;2023-03-14T01:08:49;3.83;;;2.40;;
30543;SDS011;43388;46.308;4.600;2023-03-14T01:11:34;3.10;;;2.10;;
30543;SDS011;43388;46.308;4.600;2023-03-14T01:14:00;2.88;;;1.85;;
30543;SDS011;43388;46.308;4.600;2023-03-14T01:16:27;2.28;;;2.08;;
30543;SDS011;43388;46.308;4.600;2023-03-14T01:18:53;2.00;;;1.80;;
30543;SDS011;43388;46.308;4.600;2023-03-14T01:21:21;2.28;;;2.00;;
30543;SDS011;43388;46.308;4.600;2023-03-14T01:23:47;3.03;;;2.22;;
30543;SDS011;43388;46.308;4.600;2023-03-14T01:26:15;4.45;;;2.30;;
30543;SDS011;43388;46.308;4.600;2023-03-14T01:28:41;2.58;;;2.15;;
30543;SDS011;43388;46.308;4.600;2023-03-14T01:31:09;2.28;;;2.08;;
30543;SDS011;43388;46.308;4.600;2023-03-14T01:33:35;3.33;;;2.55;;
30543;SDS011;43388;46.308;4.600;2023-03-14T01:36:02;2.60;;;2.20;;
30543;SDS011;43388;46.308;4.600;2023-03-14T01:38:28;2.40;;;2.17;;
30543;SDS011;43388;46.308;4.600;2023-03-14T01:40:55;2.53;;;2.33;;
30543;SDS011;43388;46.308;4.600;2023-03-14T01:43:21;4.35;;;2.20;;
30543;SDS011;43388;46.308;4.600;2023-03-14T01:51:16;4.93;;;2.65;;
30543;SDS011;43388;46.308;4.600;2023-03-14T01:53:43;3.85;;;2.17;;
30543;SDS011;43388;46.308;4.600;2023-03-14T01:56:10;4.00;;;2.75;;
30543;SDS011;43388;46.308;4.600;2023-03-14T01:58:37;3.72;;;2.30;;
30543;SDS011;43388;46.308;4.600;2023-03-14T02:01:04;3.42;;;2.10;;
30543;SDS011;43388;46.308;4.600;2023-03-14T02:03:30;6.18;;;3.03;;
30543;SDS011;43388;46.308;4.600;2023-03-14T02:06:00;3.80;;;2.65;;
30543;SDS011;43388;46.308;4.600;2023-03-14T02:08:29;6.38;;;2.55;;
30543;SDS011;43388;46.308;4.600;2023-03-14T02:10:56;3.00;;;2.42;;
30543;SDS011;43388;46.308;4.600;2023-03-14T02:13:22;5.40;;;2.58;;
30543;SDS011;43388;46.308;4.600;2023-03-14T02:15:48;4.55;;;2.60;;
30543;SDS011;43388;46.308;4.600;2023-03-14T02:18:15;2.60;;;2.03;;
30543;SDS011;43388;46.308;4.600;2023-03-14T02:20:45;5.22;;;2.42;;
30543;SDS011;43388;46.308;4.600;2023-03-14T02:23:13;3.10;;;2.00;;
30543;SDS011;43388;46.308;4.600;2023-03-14T02:25:48;5.65;;;2.22;;
30543;SDS011;43388;46.308;4.600;2023-03-14T02:28:16;6.22;;;2.42;;
30543;SDS011;43388;46.308;4.600;2023-03-14T02:30:42;3.85;;;2.22;;
30543;SDS011;43388;46.308;4.600;2023-03-14T02:33:15;4.22;;;2.00;;
30543;SDS011;43388;46.308;4.600;2023-03-14T02:35:58;5.00;;;2.42;;
30543;SDS011;43388;46.308;4.600;2023-03-14T02:41:09;6.20;;;2.57;;
30543;SDS011;43388;46.308;4.600;2023-03-14T02:43:35;2.92;;;2.40;;
30543;SDS011;43388;46.308;4.600;2023-03-14T02:46:01;10.63;;;2.55;;
30543;SDS011;43388;46.308;4.600;2023-03-14T02:49:02;3.33;;;2.20;;
30543;SDS011;43388;46.308;4.600;2023-03-14T02:51:21;4.90;;;2.88;;
30543;SDS011;43388;46.308;4.600;2023-03-14T02:53:47;4.35;;;2.40;;
30543;SDS011;43388;46.308;4.600;2023-03-14T02:56:13;3.08;;;2.70;;
30543;SDS011;43388;46.308;4.600;2023-03-14T02:58:39;5.72;;;3.35;;
30543;SDS011;43388;46.308;4.600;2023-03-14T03:01:05;5.30;;;2.60;;
30543;SDS011;43388;46.308;4.600;2023-03-14T03:03:31;4.00;;;2.92;;
30543;SDS011;43388;46.308;4.600;2023-03-14T03:05:57;3.00;;;2.50;;
30543;SDS011;43388;46.308;4.600;2023-03-14T03:08:24;2.53;;;2.33;;
30543;SDS011;43388;46.308;4.600;2023-03-14T03:10:51;4.13;;;2.33;;
30543;SDS011;43388;46.308;4.600;2023-03-14T03:13:17;4.15;;;2.30;;
30543;SDS011;43388;46.308;4.600;2023-03-14T03:15:44;4.63;;;3.20;;
30543;SDS011;43388;46.308;4.600;2023-03-14T03:18:10;7.07;;;3.65;;
30543;SDS011;43388;46.308;4.600;2023-03-14T03:20:36;8.27;;;4.72;;
30543;SDS011;43388;46.308;4.600;2023-03-14T03:23:02;4.93;;;3.42;;
30543;SDS011;43388;46.308;4.600;2023-03-14T03:25:28;5.15;;;3.92;;
30543;SDS011;43388;46.308;4.600;2023-03-14T03:27:54;10.32;;;3.80;;
30543;SDS011;43388;46.308;4.600;2023-03-14T03:30:21;7.00;;;3.90;;
30543;SDS011;43388;46.308;4.600;2023-03-14T03:32:47;7.75;;;4.65;;
30543;SDS011;43388;46.308;4.600;2023-03-14T03:35:13;6.20;;;4.55;;
30543;SDS011;43388;46.308;4.600;2023-03-14T03:37:39;6.88;;;3.58;;
30543;SDS011;43388;46.308;4.600;2023-03-14T03:40:05;4.38;;;3.03;;
30543;SDS011;43388;46.308;4.600;2023-03-14T03:42:32;3.78;;;3.40;;
30543;SDS011;43388;46.308;4.600;2023-03-14T03:44:58;5.20;;;2.90;;
30543;SDS011;43388;46.308;4.600;2023-03-14T03:47:24;3.53;;;2.40;;
30543;SDS011;43388;46.308;4.600;2023-03-14T03:49:51;5.25;;;2.83;;
30543;SDS011;43388;46.308;4.600;2023-03-14T03:52:17;6.85;;;3.67;;
30543;SDS011;43388;46.308;4.600;2023-03-14T03:54:43;3.80;;;2.25;;
30543;SDS011;43388;46.308;4.600;2023-03-14T03:57:09;3.17;;;2.45;;
30543;SDS011;43388;46.308;4.600;2023-03-14T03:59:35;3.95;;;2.92;;
30543;SDS011;43388;46.308;4.600;2023-03-14T04:02:03;4.28;;;2.42;;
30543;SDS011;43388;46.308;4.600;2023-03-14T04:04:29;3.90;;;2.50;;
30543;SDS011;43388;46.308;4.600;2023-03-14T04:06:55;5.90;;;3.20;;
30543;SDS011;43388;46.308;4.600;2023-03-14T04:09:21;5.47;;;2.90;;
30543;SDS011;43388;46.308;4.600;2023-03-14T04:11:47;4.95;;;2.58;;
30543;SDS011;43388;46.308;4.600;2023-03-14T04:14:13;6.40;;;3.05;;
30543;SDS011;43388;46.308;4.600;2023-03-14T04:16:39;6.97;;;3.22;;
30543;SDS011;43388;46.308;4.600;2023-03-14T04:19:05;7.85;;;3.25;;
30543;SDS011;43388;46.308;4.600;2023-03-14T04:21:32;5.28;;;3.38;;
30543;SDS011;43388;46.308;4.600;2023-03-14T04:23:58;7.10;;;4.32;;
30543;SDS011;43388;46.308;4.600;2023-03-14T04:26:24;7.13;;;3.53;;
30543;SDS011;43388;46.308;4.600;2023-03-14T04:28:50;5.47;;;2.28;;
30543;SDS011;43388;46.308;4.600;2023-03-14T04:31:17;3.88;;;2.50;;
30543;SDS011;43388;46.308;4.600;2023-03-14T04:33:44;3.38;;;2.25;;
30543;SDS011;43388;46.308;4.600;2023-03-14T04:36:10;4.53;;;2.85;;
30543;SDS011;43388;46.308;4.600;2023-03-14T04:38:36;5.63;;;3.22;;
30543;SDS011;43388;46.308;4.600;2023-03-14T04:41:02;5.63;;;3.70;;
30543;SDS011;43388;46.308;4.600;2023-03-14T04:43:28;5.30;;;3.03;;
30543;SDS011;43388;46.308;4.600;2023-03-14T04:45:55;6.18;;;2.70;;
30543;SDS011;43388;46.308;4.600;2023-03-14T04:48:21;3.63;;;2.42;;
30543;SDS011;43388;46.308;4.600;2023-03-14T04:50:47;5.70;;;2.65;;
30543;SDS011;43388;46.308;4.600;2023-03-14T04:53:13;3.80;;;2.90;;
30543;SDS011;43388;46.308;4.600;2023-03-14T04:55:40;3.85;;;2.67;;
30543;SDS011;43388;46.308;4.600;2023-03-14T04:58:06;4.68;;;2.70;;
30543;SDS011;43388;46.308;4.600;2023-03-14T05:00:32;4.82;;;2.97;;
30543;SDS011;43388;46.308;4.600;2023-03-14T05:02:58;4.88;;;2.47;;
30543;SDS011;43388;46.308;4.600;2023-03-14T05:05:24;5.65;;;3.28;;
30543;SDS011;43388;46.308;4.600;2023-03-14T05:07:50;7.95;;;3.40;;
30543;SDS011;43388;46.308;4.600;2023-03-14T05:10:16;7.18;;;3.50;;
30543;SDS011;43388;46.308;4.600;2023-03-14T05:12:42;4.82;;;3.05;;
30543;SDS011;43388;46.308;4.600;2023-03-14T05:15:08;6.10;;;3.20;;
30543;SDS011;43388;46.308;4.600;2023-03-14T05:17:34;6.40;;;2.75;;
30543;SDS011;43388;46.308;4.600;2023-03-14T05:20:01;8.15;;;2.85;;
30543;SDS011;43388;46.308;4.600;2023-03-14T05:22:32;8.05;;;3.15;;
30543;SDS011;43388;46.308;4.600;2023-03-14T05:24:58;5.22;;;2.60;;
30543;SDS011;43388;46.308;4.600;2023-03-14T05:27:24;3.53;;;2.40;;
30543;SDS011;43388;46.308;4.600;2023-03-14T05:29:50;5.38;;;3.15;;
30543;SDS011;43388;46.308;4.600;2023-03-14T05:32:16;3.00;;;2.35;;
30543;SDS011;43388;46.308;4.600;2023-03-14T05:34:42;4.95;;;2.92;;
30543;SDS011;43388;46.308;4.600;2023-03-14T05:37:08;5.93;;;2.67;;
30543;SDS011;43388;46.308;4.600;2023-03-14T05:39:34;7.40;;;3.22;;
30543;SDS011;43388;46.308;4.600;2023-03-14T05:42:00;6.82;;;2.45;;
30543;SDS011;43388;46.308;4.600;2023-03-14T05:44:26;2.97;;;2.70;;
30543;SDS011;43388;46.308;4.600;2023-03-14T05:46:52;2.83;;;2.38;;
30543;SDS011;43388;46.308;4.600;2023-03-14T05:49:18;5.40;;;2.58;;
30543;SDS011;43388;46.308;4.600;2023-03-14T05:51:44;3.60;;;2.35;;
30543;SDS011;43388;46.308;4.600;2023-03-14T05:54:10;2.95;;;2.45;;
30543;SDS011;43388;46.308;4.600;2023-03-14T05:56:36;2.50;;;2.10;;
30543;SDS011;43388;46.308;4.600;2023-03-14T05:59:02;5.70;;;2.50;;
30543;SDS011;43388;46.308;4.600;2023-03-14T06:01:29;3.42;;;2.30;;
30543;SDS011;43388;46.308;4.600;2023-03-14T06:03:55;2.78;;;2.47;;
30543;SDS011;43388;46.308;4.600;2023-03-14T06:06:21;5.63;;;2.45;;
30543;SDS011;43388;46.308;4.600;2023-03-14T06:08:47;5.47;;;3.15;;
30543;SDS011;43388;46.308;4.600;2023-03-14T06:11:13;5.25;;;2.53;;
30543;SDS011;43388;46.308;4.600;2023-03-14T06:13:39;4.45;;;2.10;;
30543;SDS011;43388;46.308;4.600;2023-03-14T06:16:06;3.13;;;2.20;;
30543;SDS011;43388;46.308;4.600;2023-03-14T06:18:32;4.32;;;2.22;;
30543;SDS011;43388;46.308;4.600;2023-03-14T06:20:58;7.25;;;3.13;;
30543;SDS011;43388;46.308;4.600;2023-03-14T06:23:24;3.80;;;1.98;;
30543;SDS011;43388;46.308;4.600;2023-03-14T06:25:50;3.28;;;2.38;;
30543;SDS011;43388;46.308;4.600;2023-03-14T06:28:16;3.45;;;2.33;;
30543;SDS011;43388;46.308;4.600;2023-03-14T06:30:42;4.50;;;2.70;;
30543;SDS011;43388;46.308;4.600;2023-03-14T06:33:08;2.95;;;2.25;;
30543;SDS011;43388;46.308;4.600;2023-03-14T06:35:34;2.83;;;2.10;;
30543;SDS011;43388;46.308;4.600;2023-03-14T06:38:00;2.83;;;1.85;;
30543;SDS011;43388;46.308;4.600;2023-03-14T06:40:26;3.58;;;2.45;;
30543;SDS011;43388;46.308;4.600;2023-03-14T06:42:52;2.20;;;2.00;;
30543;SDS011;43388;46.308;4.600;2023-03-14T06:45:18;1.70;;;1.60;;
30543;SDS011;43388;46.308;4.600;2023-03-14T06:47:44;2.15;;;2.00;;
30543;SDS011;43388;46.308;4.600;2023-03-14T06:50:10;5.25;;;2.10;;
30543;SDS011;43388;46.308;4.600;2023-03-14T06:52:37;2.53;;;2.08;;
30543;SDS011;43388;46.308;4.600;2023-03-14T06:55:06;3.83;;;2.30;;
30543;SDS011;43388;46.308;4.600;2023-03-14T06:57:32;2.83;;;1.90;;
30543;SDS011;43388;46.308;4.600;2023-03-14T06:59:58;3.22;;;1.95;;
30543;SDS011;43388;46.308;4.600;2023-03-14T07:02:24;2.00;;;1.80;;
30543;SDS011;43388;46.308;4.600;2023-03-14T07:04:50;4.75;;;2.00;;
30543;SDS011;43388;46.308;4.600;2023-03-14T07:07:16;9.73;;;6.53;;
30543;SDS011;43388;46.308;4.600;2023-03-14T07:09:42;2.55;;;2.25;;
30543;SDS011;43388;46.308;4.600;2023-03-14T07:12:08;2.20;;;2.10;;
30543;SDS011;43388;46.308;4.600;2023-03-14T07:14:34;2.65;;;2.10;;
30543;SDS011;43388;46.308;4.600;2023-03-14T07:17:00;4.03;;;2.50;;
30543;SDS011;43388;46.308;4.600;2023-03-14T07:19:26;1.88;;;1.77;;
30543;SDS011;43388;46.308;4.600;2023-03-14T07:21:52;2.25;;;2.15;;
30543;SDS011;43388;46.308;4.600;2023-03-14T07:24:18;2.08;;;1.98;;
30543;SDS011;43388;46.308;4.600;2023-03-14T07:26:44;2.05;;;1.95;;
30543;SDS011;43388;46.308;4.600;2023-03-14T07:29:10;2.42;;;2.22;;
30543;SDS011;43388;46.308;4.600;2023-03-14T07:31:36;2.15;;;2.05;;
30543;SDS011;43388;46.308;4.600;2023-03-14T07:34:02;2.10;;;2.00;;
30543;SDS011;43388;46.308;4.600;2023-03-14T07:36:28;1.83;;;1.73;;
30543;SDS011;43388;46.308;4.600;2023-03-14T07:38:54;2.28;;;2.17;;
30543;SDS011;43388;46.308;4.600;2023-03-14T07:41:20;1.85;;;1.70;;
30543;SDS011;43388;46.308;4.600;2023-03-14T07:43:47;1.70;;;1.60;;
30543;SDS011;43388;46.308;4.600;2023-03-14T07:46:14;1.80;;;1.80;;
30543;SDS011;43388;46.308;4.600;2023-03-14T07:48:40;1.58;;;1.58;;
30543;SDS011;43388;46.308;4.600;2023-03-14T07:51:06;2.25;;;1.60;;
30543;SDS011;43388;46.308;4.600;2023-03-14T07:53:32;1.65;;;1.65;;
30543;SDS011;43388;46.308;4.600;2023-03-14T07:55:58;1.98;;;1.88;;
30543;SDS011;43388;46.308;4.600;2023-03-14T07:58:24;1.75;;;1.75;;
30543;SDS011;43388;46.308;4.600;2023-03-14T08:00:50;1.83;;;1.73;;
30543;SDS011;43388;46.308;4.600;2023-03-14T08:03:17;1.77;;;1.67;;
30543;SDS011;43388;46.308;4.600;2023-03-14T08:05:43;2.10;;;2.00;;
30543;SDS011;43388;46.308;4.600;2023-03-14T08:08:12;1.98;;;1.77;;
30543;SDS011;43388;46.308;4.600;2023-03-14T08:10:38;2.40;;;2.30;;
30543;SDS011;43388;46.308;4.600;2023-03-14T08:13:04;2.00;;;1.85;;
30543;SDS011;43388;46.308;4.600;2023-03-14T08:15:30;3.33;;;1.95;;
30543;SDS011;43388;46.308;4.600;2023-03-14T08:17:57;2.97;;;2.35;;
30543;SDS011;43388;46.308;4.600;2023-03-14T08:20:24;2.13;;;2.03;;
30543;SDS011;43388;46.308;4.600;2023-03-14T08:22:50;3.42;;;2.30;;
30543;SDS011;43388;46.308;4.600;2023-03-14T08:25:16;3.03;;;2.42;;
30543;SDS011;43388;46.308;4.600;2023-03-14T08:27:43;2.95;;;2.40;;
30543;SDS011;43388;46.308;4.600;2023-03-14T08:30:10;3.10;;;2.80;;
30543;SDS011;43388;46.308;4.600;2023-03-14T08:32:37;3.58;;;2.38;;
30543;SDS011;43388;46.308;4.600;2023-03-14T08:35:03;2.92;;;2.65;;
30543;SDS011;43388;46.308;4.600;2023-03-14T08:37:33;2.33;;;2.22;;
30543;SDS011;43388;46.308;4.600;2023-03-14T08:40:00;3.08;;;2.35;;
30543;SDS011;43388;46.308;4.600;2023-03-14T08:42:26;2.92;;;2.45;;
30543;SDS011;43388;46.308;4.600;2023-03-14T08:44:52;2.85;;;2.47;;
30543;SDS011;43388;46.308;4.600;2023-03-14T08:47:18;3.42;;;2.30;;
30543;SDS011;43388;46.308;4.600;2023-03-14T08:49:44;3.55;;;2.65;;
30543;SDS011;43388;46.308;4.600;2023-03-14T08:52:12;2.88;;;2.40;;
30543;SDS011;43388;46.308;4.600;2023-03-14T08:54:38;3.53;;;2.55;;
30543;SDS011;43388;46.308;4.600;2023-03-14T08:57:04;3.72;;;3.03;;
30543;SDS011;43388;46.308;4.600;2023-03-14T08:59:30;2.42;;;2.22;;
30543;SDS011;43388;46.308;4.600;2023-03-14T09:01:56;3.88;;;1.98;;
30543;SDS011;43388;46.308;4.600;2023-03-14T09:04:22;3.42;;;2.35;;
30543;SDS011;43388;46.308;4.600;2023-03-14T09:06:48;5.55;;;3.40;;
30543;SDS011;43388;46.308;4.600;2023-03-14T09:09:14;6.22;;;2.97;;
30543;SDS011;43388;46.308;4.600;2023-03-14T09:11:40;3.75;;;2.67;;
30543;SDS011;43388;46.308;4.600;2023-03-14T09:14:06;4.00;;;2.55;;
30543;SDS011;43388;46.308;4.600;2023-03-14T09:16:33;5.57;;;2.75;;
30543;SDS011;43388;46.308;4.600;2023-03-14T09:18:59;3.50;;;2.25;;
30543;SDS011;43388;46.308;4.600;2023-03-14T09:21:25;7.82;;;3.20;;
30543;SDS011;43388;46.308;4.600;2023-03-14T09:23:52;4.40;;;2.90;;
30543;SDS011;43388;46.308;4.600;2023-03-14T09:26:18;8.15;;;2.90;;
30543;SDS011;43388;46.308;4.600;2023-03-14T09:28:44;3.13;;;2.80;;
30543;SDS011;43388;46.308;4.600;2023-03-14T09:31:10;4.85;;;2.88;;
30543;SDS011;43388;46.308;4.600;2023-03-14T09:33:37;6.05;;;3.25;;
30543;SDS011;43388;46.308;4.600;2023-03-14T09:36:04;7.57;;;3.13;;
30543;SDS011;43388;46.308;4.600;2023-03-14T09:38:30;3.08;;;2.35;;
30543;SDS011;43388;46.308;4.600;2023-03-14T09:40:58;5.65;;;3.63;;
30543;SDS011;43388;46.308;4.600;2023-03-14T09:43:24;5.80;;;3.33;;
30543;SDS011;43388;46.308;4.600;2023-03-14T09:45:51;5.90;;;3.08;;
30543;SDS011;43388;46.308;4.600;2023-03-14T09:48:21;6.20;;;3.10;;
30543;SDS011;43388;46.308;4.600;2023-03-14T09:50:49;5.68;;;2.90;;
30543;SDS011;43388;46.308;4.600;2023-03-14T09:53:20;7.38;;;3.10;;
30543;SDS011;43388;46.308;4.600;2023-03-14T09:55:49;5.50;;;2.72;;
30543;SDS011;43388;46.308;4.600;2023-03-14T09:58:22;5.03;;;3.22;;
30543;SDS011;43388;46.308;4.600;2023-03-14T10:00:49;7.15;;;2.72;;
30543;SDS011;43388;46.308;4.600;2023-03-14T10:03:25;6.20;;;3.22;;
30543;SDS011;43388;46.308;4.600;2023-03-14T10:05:52;10.98;;;3.63;;
30543;SDS011;43388;46.308;4.600;2023-03-14T10:08:18;5.00;;;2.60;;
30543;SDS011;43388;46.308;4.600;2023-03-14T10:10:44;4.22;;;3.20;;
30543;SDS011;43388;46.308;4.600;2023-03-14T10:15:37;5.80;;;2.70;;
30543;SDS011;43388;46.308;4.600;2023-03-14T10:18:04;6.70;;;3.38;;
30543;SDS011;43388;46.308;4.600;2023-03-14T10:20:41;11.20;;;3.20;;
30543;SDS011;43388;46.308;4.600;2023-03-14T10:25:38;5.55;;;3.38;;
30543;SDS011;43388;46.308;4.600;2023-03-14T10:28:04;7.18;;;3.05;;
30543;SDS011;43388;46.308;4.600;2023-03-14T10:30:45;7.53;;;2.92;;
30543;SDS011;43388;46.308;4.600;2023-03-14T10:33:21;5.82;;;3.20;;
30543;SDS011;43388;46.308;4.600;2023-03-14T10:35:54;5.18;;;3.08;;
30543;SDS011;43388;46.308;4.600;2023-03-14T10:38:23;5.63;;;3.05;;
30543;SDS011;43388;46.308;4.600;2023-03-14T10:40:50;3.63;;;2.83;;
30543;SDS011;43388;46.308;4.600;2023-03-14T10:43:19;4.93;;;3.15;;
30543;SDS011;43388;46.308;4.600;2023-03-14T10:45:51;5.82;;;2.88;;
30543;SDS011;43388;46.308;4.600;2023-03-14T10:48:19;5.55;;;3.42;;
30543;SDS011;43388;46.308;4.600;2023-03-14T10:50:49;6.18;;;3.35;;
30543;SDS011;43388;46.308;4.600;2023-03-14T10:53:17;9.82;;;3.60;;
30543;SDS011;43388;46.308;4.600;2023-03-14T10:55:44;10.82;;;3.08;;
30543;SDS011;43388;46.308;4.600;2023-03-14T10:58:17;8.68;;;3.22;;
30543;SDS011;43388;46.308;4.600;2023-03-14T11:00:43;7.07;;;2.75;;
30543;SDS011;43388;46.308;4.600;2023-03-14T11:03:11;4.80;;;3.33;;
30543;SDS011;43388;46.308;4.600;2023-03-14T11:05:57;6.90;;;2.90;;
30543;SDS011;43388;46.308;4.600;2023-03-14T11:10:52;6.88;;;3.80;;
30543;SDS011;43388;46.308;4.600;2023-03-14T11:14:22;6.90;;;2.85;;
30543;SDS011;43388;46.308;4.600;2023-03-14T11:24:30;4.13;;;2.72;;
30543;SDS011;43388;46.308;4.600;2023-03-14T11:31:57;6.60;;;3.85;;
30543;SDS011;43388;46.308;4.600;2023-03-14T11:34:28;6.25;;;3.15;;
30543;SDS011;43388;46.308;4.600;2023-03-14T11:37:00;8.32;;;4.38;;
30543;SDS011;43388;46.308;4.600;2023-03-14T11:39:29;7.70;;;4.03;;
30543;SDS011;43388;46.308;4.600;2023-03-14T11:41:57;5.03;;;2.47;;
30543;SDS011;43388;46.308;4.600;2023-03-14T11:46:52;12.38;;;6.60;;
30543;SDS011;43388;46.308;4.600;2023-03-14T11:49:32;8.75;;;4.57;;
30543;SDS011;43388;46.308;4.600;2023-03-14T11:52:20;8.07;;;3.58;;
30543;SDS011;43388;46.308;4.600;2023-03-14T11:54:53;7.53;;;3.33;;
30543;SDS011;43388;46.308;4.600;2023-03-14T11:57:21;8.18;;;3.17;;
30543;SDS011;43388;46.308;4.600;2023-03-14T12:07:19;7.45;;;3.55;;
30543;SDS011;43388;46.308;4.600;2023-03-14T12:09:47;8.40;;;3.78;;
30543;SDS011;43388;46.308;4.600;2023-03-14T12:12:22;6.05;;;4.03;;
30543;SDS011;43388;46.308;4.600;2023-03-14T12:14:55;5.03;;;3.63;;
30543;SDS011;43388;46.308;4.600;2023-03-14T12:17:24;9.90;;;4.03;;
30543;SDS011;43388;46.308;4.600;2023-03-14T12:20:04;8.77;;;4.28;;
30543;SDS011;43388;46.308;4.600;2023-03-14T12:22:35;8.07;;;3.63;;
30543;SDS011;43388;46.308;4.600;2023-03-14T12:25:06;5.88;;;4.00;;
30543;SDS011;43388;46.308;4.600;2023-03-14T12:33:11;6.68;;;3.28;;
30543;SDS011;43388;46.308;4.600;2023-03-14T12:35:39;7.93;;;2.97;;
30543;SDS011;43388;46.308;4.600;2023-03-14T12:38:27;6.50;;;2.55;;
30543;SDS011;43388;46.308;4.600;2023-03-14T12:43:30;7.38;;;2.78;;
30543;SDS011;43388;46.308;4.600;2023-03-14T12:46:19;7.78;;;2.90;;
30543;SDS011;43388;46.308;4.600;2023-03-14T12:48:45;4.88;;;2.53;;
30543;SDS011;43388;46.308;4.600;2023-03-14T12:51:15;4.05;;;2.80;;
30543;SDS011;43388;46.308;4.600;2023-03-14T12:53:54;8.15;;;2.92;;
30543;SDS011;43388;46.308;4.600;2023-03-14T12:59:18;7.13;;;3.72;;
30543;SDS011;43388;46.308;4.600;2023-03-14T13:01:59;7.38;;;4.93;;
30543;SDS011;43388;46.308;4.600;2023-03-14T13:04:36;6.20;;;4.50;;
30543;SDS011;43388;46.308;4.600;2023-03-14T13:07:03;5.90;;;4.72;;
30543;SDS011;43388;46.308;4.600;2023-03-14T13:12:02;8.43;;;4.45;;
30543;SDS011;43388;46.308;4.600;2023-03-14T13:14:29;3.75;;;3.35;;
30543;SDS011;43388;46.308;4.600;2023-03-14T13:16:58;2.85;;;2.03;;
30543;SDS011;43388;46.308;4.600;2023-03-14T13:19:29;8.18;;;4.25;;
30543;SDS011;43388;46.308;4.600;2023-03-14T13:22:06;12.27;;;3.83;;
30543;SDS011;43388;46.308;4.600;2023-03-14T13:24:35;18.08;;;3.17;;
30543;SDS011;43388;46.308;4.600;2023-03-14T13:27:01;7.82;;;4.10;;
30543;SDS011;43388;46.308;4.600;2023-03-14T13:29:28;4.88;;;3.70;;
30543;SDS011;43388;46.308;4.600;2023-03-14T13:31:56;5.05;;;3.92;;
30543;SDS011;43388;46.308;4.600;2023-03-14T13:34:24;6.30;;;3.72;;
30543;SDS011;43388;46.308;4.600;2023-03-14T13:36:51;8.77;;;3.80;;
30543;SDS011;43388;46.308;4.600;2023-03-14T13:39:18;7.63;;;4.50;;
30543;SDS011;43388;46.308;4.600;2023-03-14T13:41:46;4.03;;;2.63;;
30543;SDS011;43388;46.308;4.600;2023-03-14T13:44:15;7.07;;;2.67;;
30543;SDS011;43388;46.308;4.600;2023-03-14T13:46:42;9.32;;;2.58;;
30543;SDS011;43388;46.308;4.600;2023-03-14T13:49:12;5.82;;;2.55;;
30543;SDS011;43388;46.308;4.600;2023-03-14T13:51:41;4.70;;;3.10;;
30543;SDS011;43388;46.308;4.600;2023-03-14T13:54:17;7.20;;;5.43;;
30543;SDS011;43388;46.308;4.600;2023-03-14T13:56:44;5.72;;;4.45;;
30543;SDS011;43388;46.308;4.600;2023-03-14T13:59:29;8.93;;;4.05;;
30543;SDS011;43388;46.308;4.600;2023-03-14T14:01:55;7.90;;;4.32;;
30543;SDS011;43388;46.308;4.600;2023-03-14T14:04:23;5.07;;;1.90;;
30543;SDS011;43388;46.308;4.600;2023-03-14T14:06:52;3.83;;;1.85;;
30543;SDS011;43388;46.308;4.600;2023-03-14T14:09:20;5.55;;;2.20;;
30543;SDS011;43388;46.308;4.600;2023-03-14T14:16:46;7.03;;;4.60;;
30543;SDS011;43388;46.308;4.600;2023-03-14T14:19:13;4.25;;;3.83;;
30543;SDS011;43388;46.308;4.600;2023-03-14T14:21:39;4.65;;;3.72;;
30543;SDS011;43388;46.308;4.600;2023-03-14T14:24:05;5.40;;;3.45;;
30543;SDS011;43388;46.308;4.600;2023-03-14T14:26:33;7.47;;;3.70;;
30543;SDS011;43388;46.308;4.600;2023-03-14T14:29:03;3.60;;;2.95;;
30543;SDS011;43388;46.308;4.600;2023-03-14T14:31:29;4.07;;;3.10;;
30543;SDS011;43388;46.308;4.600;2023-03-14T14:33:59;4.53;;;2.80;;
30543;SDS011;43388;46.308;4.600;2023-03-14T14:36:38;4.47;;;1.98;;
30543;SDS011;43388;46.308;4.600;2023-03-14T14:39:06;5.55;;;1.95;;
30543;SDS011;43388;46.308;4.600;2023-03-14T14:41:37;4.22;;;1.90;;
30543;SDS011;43388;46.308;4.600;2023-03-14T14:44:05;5.38;;;2.70;;
30543;SDS011;43388;46.308;4.600;2023-03-14T14:46:32;3.25;;;1.90;;
30543;SDS011;43388;46.308;4.600;2023-03-14T14:49:02;5.13;;;2.92;;
30543;SDS011;43388;46.308;4.600;2023-03-14T14:51:33;4.15;;;3.15;;
30543;SDS011;43388;46.308;4.600;2023-03-14T14:54:04;10.98;;;3.28;;
30543;SDS011;43388;46.308;4.600;2023-03-14T14:56:34;6.75;;;2.95;;
30543;SDS011;43388;46.308;4.600;2023-03-14T14:59:02;5.15;;;3.22;;
30543;SDS011;43388;46.308;4.600;2023-03-14T15:01:36;4.32;;;3.05;;
30543;SDS011;43388;46.308;4.600;2023-03-14T15:04:09;3.88;;;2.97;;
30543;SDS011;43388;46.308;4.600;2023-03-14T15:06:36;5.00;;;2.08;;
30543;SDS011;43388;46.308;4.600;2023-03-14T15:09:02;6.05;;;2.97;;
30543;SDS011;43388;46.308;4.600;2023-03-14T15:11:28;5.70;;;3.72;;
30543;SDS011;43388;46.308;4.600;2023-03-14T15:13:54;4.28;;;2.75;;
30543;SDS011;43388;46.308;4.600;2023-03-14T15:16:21;6.13;;;3.25;;
30543;SDS011;43388;46.308;4.600;2023-03-14T15:18:55;7.07;;;2.80;;
30543;SDS011;43388;46.308;4.600;2023-03-14T15:21:22;3.75;;;2.28;;
30543;SDS011;43388;46.308;4.600;2023-03-14T15:23:48;7.40;;;3.42;;
30543;SDS011;43388;46.308;4.600;2023-03-14T15:26:15;5.75;;;2.63;;
30543;SDS011;43388;46.308;4.600;2023-03-14T15:28:42;4.10;;;2.53;;
30543;SDS011;43388;46.308;4.600;2023-03-14T15:31:08;3.15;;;2.00;;
30543;SDS011;43388;46.308;4.600;2023-03-14T15:33:35;6.28;;;2.97;;
30543;SDS011;43388;46.308;4.600;2023-03-14T15:36:01;6.45;;;2.40;;
30543;SDS011;43388;46.308;4.600;2023-03-14T15:38:27;2.70;;;1.90;;
30543;SDS011;43388;46.308;4.600;2023-03-14T15:40:53;4.40;;;2.38;;
30543;SDS011;43388;46.308;4.600;2023-03-14T15:43:19;17.63;;;2.78;;
30543;SDS011;43388;46.308;4.600;2023-03-14T15:45:45;2.03;;;1.70;;
30543;SDS011;43388;46.308;4.600;2023-03-14T15:48:20;6.00;;;2.20;;
30543;SDS011;43388;46.308;4.600;2023-03-14T15:50:47;4.07;;;2.17;;